Time;durP1;ratioP1;P1;durP2;ratioP2;P2;SDS_P1;SDS_P2;PMS_P1;PMS_P2;Temp;Humidity;BMP_temperature;BMP_pressure;BME280_temperature;BME280_humidity;BME280_pressure;Samples;Min_cycle;Max_cycle;Signal;HPM_P1;HPM_P2
2023/12/17 00:00:27;;;;;;;;;;;;;;;;;;5023303;28;60571;-73
2023/12/17 00:02:52;;;;;;;;;;;;;;;;;;5020064;28;60678;-74
2023/12/17 00:05:17;;;;;;;;;;;;;;;;;;5023645;28;59307;-73
2023/12/17 00:07:42;;;;;;;;;;;;;;;;;;5022388;28;58790;-72
2023/12/17 00:10:07;;;;;;;;;;;;;;;;;;5022282;28;59327;-72
2023/12/17 00:12:32;;;;;;;;;;;;;;;;;;5020377;28;60296;-73
2023/12/17 00:14:58;;;;;;;;;;;;;;;;;;5021068;28;59233;-72
2023/12/17 00:17:23;;;;;;;;;;;;;;;;;;5023569;28;58531;-72
2023/12/17 00:19:48;;;;;;;;;;;;;;;;;;5022998;28;59197;-72
2023/12/17 00:22:13;;;;;;;;;;;;;;;;;;5021621;28;59262;-76
2023/12/17 00:24:38;;;;;;;;;;;;;;;;;;5023148;28;59066;-72
2023/12/17 00:27:03;;;;;;;;;;;;;;;;;;5024468;28;60172;-73
2023/12/17 00:29:28;;;;;;;;;;;;;;;;;;5021931;28;59208;-72
2023/12/17 00:31:53;;;;;;;;;;;;;;;;;;5023015;28;60311;-72
2023/12/17 00:34:18;;;;;;;;;;;;;;;;;;5021301;28;58987;-72
2023/12/17 00:36:43;;;;;;;;;;;;;;;;;;5024216;28;59432;-77
2023/12/17 00:39:08;;;;;;;;;;;;;;;;;;5022216;28;60301;-77
2023/12/17 00:41:33;;;;;;;;;;;;;;;;;;5023471;28;60242;-77
2023/12/17 00:43:59;;;;;;;;;;;;;;;;;;5026526;28;59368;-77
2023/12/17 00:46:24;;;;;;;;;;;;;;;;;;5026056;28;60113;-77
2023/12/17 00:48:49;;;;;;;;;;;;;;;;;;5026851;28;59168;-77
2023/12/17 00:51:14;;;;;;;;;;;;;;;;;;5025897;28;60572;-77
2023/12/17 00:53:39;;;;;;;;;;;;;;;;;;5024686;28;58821;-77
2023/12/17 00:56:04;;;;;;;;;;;;;;;;;;5024635;28;59366;-77
2023/12/17 00:58:29;;;;;;;;;;;;;;;;;;5026060;28;60230;-77
2023/12/17 01:00:54;;;;;;;;;;;;;;;;;;5025604;28;59783;-77
2023/12/17 01:03:19;;;;;;;;;;;;;;;;;;5026897;28;58433;-77
2023/12/17 01:05:44;;;;;;;;;;;;;;;;;;5028147;28;59315;-77
2023/12/17 01:08:09;;;;;;;;;;;;;;;;;;5026771;28;59203;-77
2023/12/17 01:10:35;;;;;;;;;;;;;;;;;;5026662;28;60289;-77
2023/12/17 01:13:00;;;;;;;;;;;;;;;;;;5023910;28;59302;-77
2023/12/17 01:15:25;;;;;;;;;;;;;;;;;;5026095;28;59407;-77
2023/12/17 01:17:50;;;;;;;;;;;;;;;;;;5028396;28;60368;-77
2023/12/17 01:20:15;;;;;;;;;;;;;;;;;;5024550;28;59485;-77
2023/12/17 01:22:40;;;;;;;;;;;;;;;;;;5026112;28;59371;-77
2023/12/17 01:25:05;;;;;;;;;;;;;;;;;;5024733;28;60642;-77
2023/12/17 01:27:30;;;;;;;;;;;;;;;;;;5023303;28;59901;-77
2023/12/17 01:29:55;;;;;;;;;;;;;;;;;;5028180;28;59134;-77
2023/12/17 01:32:20;;;;;;;;;;;;;;;;;;5023775;28;59335;-78
2023/12/17 01:34:46;;;;;;;;;;;;;;;;;;5026496;28;59211;-78
2023/12/17 01:37:11;;;;;;;;;;;;;;;;;;5026301;28;59369;-78
2023/12/17 01:39:36;;;;;;;;;;;;;;;;;;5024286;28;59469;-78
2023/12/17 01:42:01;;;;;;;;;;;;;;;;;;5022651;28;59196;-78
2023/12/17 01:44:26;;;;;;;;;;;;;;;;;;5025277;28;59843;-78
2023/12/17 01:46:51;;;;;;;;;;;;;;;;;;5024960;28;59521;-74
2023/12/17 01:49:16;;;;;;;;;;;;;;;;;;5025473;28;59924;-73
2023/12/17 01:51:41;;;;;;;;;;;;;;;;;;5023974;28;60273;-75
2023/12/17 01:54:06;;;;;;;;;;;;;;;;;;5025765;28;58469;-73
2023/12/17 01:56:31;;;;;;;;;;;;;;;;;;5025877;28;60352;-74
2023/12/17 01:58:56;;;;;;;;;;;;;;;;;;5021887;28;59311;-73
2023/12/17 02:01:21;;;;;;;;;;;;;;;;;;5022083;28;59350;-73
2023/12/17 02:03:47;;;;;;;;;;;;;;;;;;5025424;28;59653;-71
2023/12/17 02:06:12;;;;;;;;;;;;;;;;;;5023643;28;59414;-77
2023/12/17 02:08:37;;;;;;;;;;;;;;;;;;5024802;28;59209;-77
2023/12/17 02:11:02;;;;;;;;;;;;;;;;;;5022992;28;61303;-73
2023/12/17 02:13:27;;;;;;;;;;;;;;;;;;5023160;28;59338;-73
2023/12/17 02:15:52;;;;;;;;;;;;;;;;;;5023781;28;60027;-76
2023/12/17 02:18:17;;;;;;;;;;;;;;;;;;5023985;28;59112;-72
2023/12/17 02:20:43;;;;;;;;;;;;;;;;;;5022813;28;59046;-73
2023/12/17 02:23:08;;;;;;;;;;;;;;;;;;5023820;28;60284;-68
2023/12/17 02:25:34;;;;;;;;;;;;;;;;;;5024033;28;59260;-71
2023/12/17 02:27:59;;;;;;;;;;;;;;;;;;5024299;28;59315;-72
2023/12/17 02:30:24;;;;;;;;;;;;;;;;;;5023903;28;59296;-72
2023/12/17 02:32:49;;;;;;;;;;;;;;;;;;5023640;28;59248;-71
2023/12/17 02:35:14;;;;;;;;;;;;;;;;;;5023252;28;59306;-74
2023/12/17 02:37:39;;;;;;;;;;;;;;;;;;5023761;28;59369;-76
2023/12/17 02:40:04;;;;;;;;;;;;;;;;;;5023182;28;59331;-74
2023/12/17 02:42:29;;;;;;;;;;;;;;;;;;5022988;28;60372;-71
2023/12/17 02:44:54;;;;;;;;;;;;;;;;;;5023390;28;59316;-75
2023/12/17 02:47:19;;;;;;;;;;;;;;;;;;5022076;28;59232;-77
2023/12/17 02:49:44;;;;;;;;;;;;;;;;;;5023198;28;60305;-75
2023/12/17 02:52:10;;;;;;;;;;;;;;;;;;5020860;28;59227;-73
2023/12/17 02:54:35;;;;;;;;;;;;;;;;;;5020264;28;59291;-74
2023/12/17 02:57:00;;;;;;;;;;;;;;;;;;5020885;28;59959;-77
2023/12/17 02:59:25;;;;;;;;;;;;;;;;;;5021697;28;59587;-81
2023/12/17 03:01:51;;;;;;;;;;;;;;;;;;5020336;28;60306;-83
2023/12/17 03:04:16;;;;;;;;;;;;;;;;;;5019952;28;59865;-77
2023/12/17 03:06:41;;;;;;;;;;;;;;;;;;5022546;28;59267;-78
2023/12/17 03:09:06;;;;;;;;;;;;;;;;;;5023270;28;60185;-77
2023/12/17 03:11:31;;;;;;;;;;;;;;;;;;5022978;28;59849;-77
2023/12/17 03:13:56;;;;;;;;;;;;;;;;;;5022762;28;59212;-82
2023/12/17 03:16:22;;;;;;;;;;;;;;;;;;5022503;28;60417;-77
2023/12/17 03:18:47;;;;;;;;;;;;;;;;;;5003923;28;59356;-78
2023/12/17 03:21:12;;;;;;;;;;;;;;;;;;5023815;28;60560;-76
2023/12/17 03:23:37;;;;;;;;;;;;;;;;;;5022840;28;59809;-77
2023/12/17 03:26:02;;;;;;;;;;;;;;;;;;5022776;28;77335;-77
2023/12/17 03:28:27;;;;;;;;;;;;;;;;;;5022602;28;60239;-79
2023/12/17 03:30:52;;;;;;;;;;;;;;;;;;5021913;28;59299;-80
2023/12/17 03:33:17;;;;;;;;;;;;;;;;;;5022365;28;59254;-80
2023/12/17 03:35:42;;;;;;;;;;;;;;;;;;5024245;28;59307;-81
2023/12/17 03:38:07;;;;;;;;;;;;;;;;;;5025096;28;59165;-78
2023/12/17 03:40:33;;;;;;;;;;;;;;;;;;5023703;28;60132;-77
2023/12/17 03:42:58;;;;;;;;;;;;;;;;;;5023876;28;59321;-77
2023/12/17 03:45:23;;;;;;;;;;;;;;;;;;5022672;28;59202;-79
2023/12/17 03:47:48;;;;;;;;;;;;;;;;;;5022313;28;60313;-76
2023/12/17 03:50:13;;;;;;;;;;;;;;;;;;5021311;28;59614;-76
2023/12/17 03:52:38;;;;;;;;;;;;;;;;;;5020508;28;59169;-76
2023/12/17 03:55:03;;;;;;;;;;;;;;;;;;5021988;28;61034;-76
2023/12/17 03:57:29;;;;;;;;;;;;;;;;;;5020438;28;59818;-76
2023/12/17 03:59:54;;;;;;;;;;;;;;;;;;5022985;28;59216;-76
2023/12/17 04:02:19;;;;;;;;;;;;;;;;;;5020065;28;59357;-76
2023/12/17 04:04:44;;;;;;;;;;;;;;;;;;5022229;28;59293;-76
2023/12/17 04:07:09;;;;;;;;;;;;;;;;;;5020282;28;61191;-76
2023/12/17 04:09:34;;;;;;;;;;;;;;;;;;5018908;28;59263;-76
2023/12/17 04:11:59;;;;;;;;;;;;;;;;;;5018882;28;59307;-76
2023/12/17 04:14:24;;;;;;;;;;;;;;;;;;5017152;28;61475;-76
2023/12/17 04:16:49;;;;;;;;;;;;;;;;;;5020282;28;59360;-72
2023/12/17 04:19:14;;;;;;;;;;;;;;;;;;5021155;28;58579;-71
2023/12/17 04:21:39;;;;;;;;;;;;;;;;;;5021896;28;60248;-70
2023/12/17 04:24:04;;;;;;;;;;;;;;;;;;5022914;28;59274;-71
2023/12/17 04:26:29;;;;;;;;;;;;;;;;;;5021057;28;60165;-71
2023/12/17 04:28:54;;;;;;;;;;;;;;;;;;5021269;28;58613;-71
2023/12/17 04:31:20;;;;;;;;;;;;;;;;;;5021448;28;59192;-71
2023/12/17 04:33:45;;;;;;;;;;;;;;;;;;5021351;28;59313;-71
2023/12/17 04:36:10;;;;;;;;;;;;;;;;;;5021870;28;59534;-71
2023/12/17 04:38:35;;;;;;;;;;;;;;;;;;5023754;28;59195;-71
2023/12/17 04:41:00;;;;;;;;;;;;;;;;;;5021966;28;60207;-71
2023/12/17 04:43:26;;;;;;;;;;;;;;;;;;5022404;28;59472;-71
2023/12/17 04:45:51;;;;;;;;;;;;;;;;;;5023300;28;59367;-71
2023/12/17 04:48:16;;;;;;;;;;;;;;;;;;5020874;28;59546;-73
2023/12/17 04:50:43;;;;;;;;;;;;;;;;;;5022743;28;59235;-72
2023/12/17 04:53:08;;;;;;;;;;;;;;;;;;5022001;28;59524;-71
2023/12/17 04:55:34;;;;;;;;;;;;;;;;;;5021082;28;59362;-71
2023/12/17 04:57:59;;;;;;;;;;;;;;;;;;5022374;28;59264;-71
2023/12/17 05:00:24;;;;;;;;;;;;;;;;;;5022582;28;60076;-70
2023/12/17 05:02:49;;;;;;;;;;;;;;;;;;5022398;28;59600;-71
2023/12/17 05:05:14;;;;;;;;;;;;;;;;;;5023601;28;59279;-75
2023/12/17 05:07:39;;;;;;;;;;;;;;;;;;5022771;28;59269;-71
2023/12/17 05:10:04;;;;;;;;;;;;;;;;;;5025376;28;58470;-70
2023/12/17 05:12:29;;;;;;;;;;;;;;;;;;5023754;28;60703;-71
2023/12/17 05:14:55;;;;;;;;;;;;;;;;;;5024429;28;59149;-70
2023/12/17 05:17:20;;;;;;;;;;;;;;;;;;5024860;28;59228;-70
2023/12/17 05:19:45;;;;;;;;;;;;;;;;;;5025322;28;59843;-70
2023/12/17 05:22:10;;;;;;;;;;;;;;;;;;5023997;28;59284;-70
2023/12/17 05:24:35;;;;;;;;;;;;;;;;;;5025084;28;59184;-71
2023/12/17 05:27:00;;;;;;;;;;;;;;;;;;5025410;28;59214;-76
2023/12/17 05:29:25;;;;;;;;;;;;;;;;;;5024866;28;58736;-76
2023/12/17 05:31:50;;;;;;;;;;;;;;;;;;5023135;28;60259;-76
2023/12/17 05:34:15;;;;;;;;;;;;;;;;;;5023887;28;59426;-76
2023/12/17 05:36:40;;;;;;;;;;;;;;;;;;5024618;28;59341;-76
2023/12/17 05:39:05;;;;;;;;;;;;;;;;;;5025682;28;60025;-76
2023/12/17 05:41:30;;;;;;;;;;;;;;;;;;5022304;28;59264;-76
2023/12/17 05:43:56;;;;;;;;;;;;;;;;;;5024130;28;59307;-76
2023/12/17 05:46:21;;;;;;;;;;;;;;;;;;5023150;28;61083;-76
2023/12/17 05:48:46;;;;;;;;;;;;;;;;;;5025483;28;59296;-76
2023/12/17 05:51:11;;;;;;;;;;;;;;;;;;5024594;28;60321;-75
2023/12/17 05:53:36;;;;;;;;;;;;;;;;;;5022510;28;59685;-76
2023/12/17 05:56:01;;;;;;;;;;;;;;;;;;5024325;28;59361;-76
2023/12/17 05:58:26;;;;;;;;;;;;;;;;;;5023563;28;60431;-76
2023/12/17 06:00:51;;;;;;;;;;;;;;;;;;5022440;28;59696;-76
2023/12/17 06:03:16;;;;;;;;;;;;;;;;;;5024517;28;59349;-76
2023/12/17 06:05:41;;;;;;;;;;;;;;;;;;5026021;28;59539;-76
2023/12/17 06:08:06;;;;;;;;;;;;;;;;;;5025108;28;59244;-76
2023/12/17 06:10:31;;;;;;;;;;;;;;;;;;5024234;28;60308;-76
2023/12/17 06:12:57;;;;;;;;;;;;;;;;;;5023181;28;59510;-76
2023/12/17 06:15:22;;;;;;;;;;;;;;;;;;5022654;28;59297;-76
2023/12/17 06:17:47;;;;;;;;;;;;;;;;;;5025491;28;60062;-76
2023/12/17 06:20:12;;;;;;;;;;;;;;;;;;5023644;28;59438;-76
2023/12/17 06:22:37;;;;;;;;;;;;;;;;;;5024601;28;59274;-76
2023/12/17 06:25:02;;;;;;;;;;;;;;;;;;5023823;28;60122;-76
2023/12/17 06:27:27;;;;;;;;;;;;;;;;;;5021922;28;60245;-76
2023/12/17 06:29:54;;;;;;;;;;;;;;;;;;5025698;28;59235;-76
2023/12/17 06:32:19;;;;;;;;;;;;;;;;;;5021102;28;59064;-75
2023/12/17 06:34:44;;;;;;;;;;;;;;;;;;5024412;28;58692;-76
2023/12/17 06:37:10;;;;;;;;;;;;;;;;;;5024162;28;59393;-72
2023/12/17 06:39:35;;;;;;;;;;;;;;;;;;5021771;28;59390;-73
2023/12/17 06:42:00;;;;;;;;;;;;;;;;;;5022983;28;59315;-70
2023/12/17 06:44:26;;;;;;;;;;;;;;;;;;5021803;28;60254;-70
2023/12/17 06:46:51;;;;;;;;;;;;;;;;;;5018245;28;59883;-70
2023/12/17 06:49:16;;;;;;;;;;;;;;;;;;5023841;28;59252;-71
2023/12/17 06:51:41;;;;;;;;;;;;;;;;;;5022116;28;59518;-73
2023/12/17 06:54:06;;;;;;;;;;;;;;;;;;5022784;28;59074;-70
2023/12/17 06:56:31;;;;;;;;;;;;;;;;;;5021787;28;60140;-71
2023/12/17 06:58:56;;;;;;;;;;;;;;;;;;5022688;28;59702;-70
2023/12/17 07:01:21;;;;;;;;;;;;;;;;;;5023023;28;59350;-70
2023/12/17 07:03:46;;;;;;;;;;;;;;;;;;5023728;28;59985;-71
2023/12/17 07:06:12;;;;;;;;;;;;;;;;;;5022744;28;59291;-70
2023/12/17 07:08:37;;;;;;;;;;;;;;;;;;5023260;28;58533;-71
2023/12/17 07:11:02;;;;;;;;;;;;;;;;;;5022387;28;60479;-72
2023/12/17 07:13:27;;;;;;;;;;;;;;;;;;5022337;28;58571;-70
2023/12/17 07:15:52;;;;;;;;;;;;;;;;;;5022571;28;59294;-72
2023/12/17 07:18:17;;;;;;;;;;;;;;;;;;5022816;28;58546;-71
2023/12/17 07:20:43;;;;;;;;;;;;;;;;;;5023701;28;59196;-70
2023/12/17 07:23:08;;;;;;;;;;;;;;;;;;5022925;28;60169;-70
2023/12/17 07:25:33;;;;;;;;;;;;;;;;;;5022890;28;59130;-70
2023/12/17 07:27:58;;;;;;;;;;;;;;;;;;5023329;28;59256;-70
2023/12/17 07:30:23;;;;;;;;;;;;;;;;;;5021967;28;59895;-70
2023/12/17 07:32:49;;;;;;;;;;;;;;;;;;5022809;28;59331;-71
2023/12/17 07:35:14;;;;;;;;;;;;;;;;;;5023022;28;60369;-71
2023/12/17 07:37:39;;;;;;;;;;;;;;;;;;5019158;28;59309;-71
2023/12/17 07:40:04;;;;;;;;;;;;;;;;;;5022181;28;58535;-73
2023/12/17 07:42:29;;;;;;;;;;;;;;;;;;5021185;28;60222;-70
2023/12/17 07:44:55;;;;;;;;;;;;;;;;;;5021866;28;59320;-70
2023/12/17 07:47:20;;;;;;;;;;;;;;;;;;5021852;28;59216;-71
2023/12/17 07:49:45;;;;;;;;;;;;;;;;;;5022227;28;60510;-71
2023/12/17 07:52:11;;;;;;;;;;;;;;;;;;5017772;28;60068;-70
2023/12/17 07:54:36;;;;;;;;;;;;;;;;;;5021787;28;59317;-70
2023/12/17 07:57:01;;;;;;;;;;;;;;;;;;5019379;28;59387;-71
2023/12/17 07:59:26;;;;;;;;;;;;;;;;;;5020451;28;59125;-70
2023/12/17 08:01:52;;;;;;;;;;;;;;;;;;5020439;28;59435;-71
2023/12/17 08:04:17;;;;;;;;;;;;;;;;;;5021209;28;59855;-70
2023/12/17 08:06:43;;;;;;;;;;;;;;;;;;5022251;28;59321;-70
2023/12/17 08:09:08;;;;;;;;;;;;;;;;;;5022685;28;61233;-71
2023/12/17 08:11:34;;;;;;;;;;;;;;;;;;5019229;28;59320;-71
2023/12/17 08:13:59;;;;;;;;;;;;;;;;;;5021227;28;59287;-71
2023/12/17 08:16:24;;;;;;;;;;;;;;;;;;5022012;28;60861;-70
2023/12/17 08:18:50;;;;;;;;;;;;;;;;;;5022570;28;59479;-71
2023/12/17 08:21:15;;;;;;;;;;;;;;;;;;5022875;28;60258;-73
2023/12/17 08:23:40;;;;;;;;;;;;;;;;;;5022253;28;59247;-71
2023/12/17 08:26:05;;;;;;;;;;;;;;;;;;5022566;28;59243;-70
2023/12/17 08:28:30;;;;;;;;;;;;;;;;;;5020031;28;60160;-70
2023/12/17 08:30:55;;;;;;;;;;;;;;;;;;5020156;28;59192;-70
2023/12/17 08:33:21;;;;;;;;;;;;;;;;;;5021133;28;59287;-71
2023/12/17 08:35:47;;;;;;;;;;;;;;;;;;5024456;28;59210;-71
2023/12/17 08:38:12;;;;;;;;;;;;;;;;;;5022634;28;59439;-73
2023/12/17 08:40:37;;;;;;;;;;;;;;;;;;5021608;28;60257;-70
2023/12/17 08:43:02;;;;;;;;;;;;;;;;;;5020990;28;59826;-75
2023/12/17 08:45:27;;;;;;;;;;;;;;;;;;5020500;28;59251;-73
2023/12/17 08:47:52;;;;;;;;;;;;;;;;;;5022612;28;59570;-71
2023/12/17 08:50:17;;;;;;;;;;;;;;;;;;5020286;28;59034;-70
2023/12/17 08:52:43;;;;;;;;;;;;;;;;;;5020976;28;59320;-70
2023/12/17 08:55:08;;;;;;;;;;;;;;;;;;5020613;28;60412;-72
2023/12/17 08:57:33;;;;;;;;;;;;;;;;;;5016684;28;59312;-71
2023/12/17 08:59:58;;;;;;;;;;;;;;;;;;5021408;28;59229;-70
2023/12/17 09:02:23;;;;;;;;;;;;;;;;;;5019906;28;59491;-72
2023/12/17 09:04:51;;;;;;;;;;;;;;;;;;5024315;28;59232;-71
2023/12/17 09:07:16;;;;;;;;;;;;;;;;;;5023507;28;60200;-70
2023/12/17 09:09:41;;;;;;;;;;;;;;;;;;5023390;28;59387;-72
2023/12/17 09:12:06;;;;;;;;;;;;;;;;;;5024303;28;59358;-72
2023/12/17 09:14:31;;;;;;;;;;;;;;;;;;5023734;28;60307;-70
2023/12/17 09:16:57;;;;;;;;;;;;;;;;;;5021934;28;59192;-71
2023/12/17 09:19:22;;;;;;;;;;;;;;;;;;5025535;28;59472;-73
2023/12/17 09:21:47;;;;;;;;;;;;;;;;;;5024394;28;59761;-72
2023/12/17 09:24:13;;;;;;;;;;;;;;;;;;5024334;28;59299;-70
2023/12/17 09:26:38;;;;;;;;;;;;;;;;;;5024450;28;60159;-71
2023/12/17 09:29:03;;;;;;;;;;;;;;;;;;5021975;28;59791;-71
2023/12/17 09:31:28;;;;;;;;;;;;;;;;;;5023349;28;58626;-73
2023/12/17 09:33:54;;;;;;;;;;;;;;;;;;5024238;28;60175;-74
2023/12/17 09:36:19;;;;;;;;;;;;;;;;;;5023819;28;60042;-72
2023/12/17 09:38:44;;;;;;;;;;;;;;;;;;5025678;28;59019;-70
2023/12/17 09:41:09;;;;;;;;;;;;;;;;;;5023966;28;59317;-71
2023/12/17 09:43:34;;;;;;;;;;;;;;;;;;5021978;28;59216;-71
2023/12/17 09:46:00;;;;;;;;;;;;;;;;;;5023946;28;60455;-70
2023/12/17 09:48:25;;;;;;;;;;;;;;;;;;5022961;28;58708;-70
2023/12/17 09:50:50;;;;;;;;;;;;;;;;;;5025534;28;59361;-71
2023/12/17 09:53:15;;;;;;;;;;;;;;;;;;5021437;28;60791;-71
2023/12/17 09:55:40;;;;;;;;;;;;;;;;;;5023717;28;59510;-71
2023/12/17 09:58:05;;;;;;;;;;;;;;;;;;5022931;28;58440;-70
2023/12/17 10:00:30;;;;;;;;;;;;;;;;;;5022440;28;60482;-70
2023/12/17 10:02:55;;;;;;;;;;;;;;;;;;5024770;28;59366;-71
2023/12/17 10:05:21;;;;;;;;;;;;;;;;;;5022787;28;60179;-70
2023/12/17 10:07:46;;;;;;;;;;;;;;;;;;5022156;28;59251;-70
2023/12/17 10:10:11;;;;;;;;;;;;;;;;;;5021733;28;59389;-71
2023/12/17 10:12:37;;;;;;;;;;;;;;;;;;5023112;28;60080;-70
2023/12/17 10:15:02;;;;;;;;;;;;;;;;;;5021350;28;59308;-70
2023/12/17 10:17:27;;;;;;;;;;;;;;;;;;5024402;28;59159;-70
2023/12/17 10:19:53;;;;;;;;;;;;;;;;;;5023704;28;59407;-70
2023/12/17 10:22:19;;;;;;;;;;;;;;;;;;5022580;28;59264;-75
2023/12/17 10:24:44;;;;;;;;;;;;;;;;;;5024839;28;58431;-71
2023/12/17 10:27:09;;;;;;;;;;;;;;;;;;5021579;28;60967;-70
2023/12/17 10:29:34;;;;;;;;;;;;;;;;;;5023998;28;59045;-72
2023/12/17 10:31:59;;;;;;;;;;;;;;;;;;5021637;28;59203;-72
2023/12/17 10:34:25;;;;;;;;;;;;;;;;;;5023327;28;59205;-70
2023/12/17 10:36:50;;;;;;;;;;;;;;;;;;5024042;28;58466;-71
2023/12/17 10:39:15;;;;;;;;;;;;;;;;;;5023501;28;60028;-72
2023/12/17 10:41:40;;;;;;;;;;;;;;;;;;5021671;28;59466;-72
2023/12/17 10:44:05;;;;;;;;;;;;;;;;;;5024056;28;59198;-71
2023/12/17 10:46:30;;;;;;;;;;;;;;;;;;5022953;28;59214;-71
2023/12/17 10:48:55;;;;;;;;;;;;;;;;;;5022023;28;59354;-71
2023/12/17 10:51:20;;;;;;;;;;;;;;;;;;5023012;28;60239;-71
2023/12/17 10:53:45;;;;;;;;;;;;;;;;;;5022993;28;59244;-70
2023/12/17 10:56:10;;;;;;;;;;;;;;;;;;5022779;28;59234;-70
2023/12/17 10:58:35;;;;;;;;;;;;;;;;;;5023553;28;59359;-70
2023/12/17 11:01:00;;;;;;;;;;;;;;;;;;5021519;28;59453;-70
2023/12/17 11:03:26;;;;;;;;;;;;;;;;;;5022311;28;59284;-70
2023/12/17 11:05:51;;;;;;;;;;;;;;;;;;5023067;28;60271;-75
2023/12/17 11:08:16;;;;;;;;;;;;;;;;;;5023522;28;58554;-75
2023/12/17 11:10:41;;;;;;;;;;;;;;;;;;5022239;28;60285;-75
2023/12/17 11:13:06;;;;;;;;;;;;;;;;;;5021687;28;59447;-75
2023/12/17 11:15:31;;;;;;;;;;;;;;;;;;5021840;28;58995;-76
2023/12/17 11:17:56;;;;;;;;;;;;;;;;;;5024054;28;60231;-70
2023/12/17 11:20:21;;;;;;;;;;;;;;;;;;5020780;28;59510;-70
2023/12/17 11:22:47;;;;;;;;;;;;;;;;;;5023610;28;59231;-70
2023/12/17 11:25:12;;;;;;;;;;;;;;;;;;5021783;28;60499;-70
2023/12/17 11:27:37;;;;;;;;;;;;;;;;;;5022431;28;59354;-74
2023/12/17 11:30:03;;;;;;;;;;;;;;;;;;5021963;28;59217;-70
2023/12/17 11:32:28;;;;;;;;;;;;;;;;;;5020209;28;59411;-70
2023/12/17 11:34:53;;;;;;;;;;;;;;;;;;5020938;28;59372;-74
2023/12/17 11:37:19;;;;;;;;;;;;;;;;;;5022134;28;59749;-75
2023/12/17 11:39:44;;;;;;;;;;;;;;;;;;5020435;28;58970;-72
2023/12/17 11:42:09;;;;;;;;;;;;;;;;;;5018489;28;59295;-73
2023/12/17 11:44:34;;;;;;;;;;;;;;;;;;5020912;28;60133;-70
2023/12/17 11:46:59;;;;;;;;;;;;;;;;;;5020098;28;59240;-71
2023/12/17 11:49:24;;;;;;;;;;;;;;;;;;5021632;28;59422;-72
2023/12/17 11:51:49;;;;;;;;;;;;;;;;;;5019415;28;59481;-72
2023/12/17 11:54:14;;;;;;;;;;;;;;;;;;5019896;28;59307;-70
2023/12/17 11:56:39;;;;;;;;;;;;;;;;;;5021553;28;60336;-71
2023/12/17 11:59:04;;;;;;;;;;;;;;;;;;5020458;28;59549;-72
2023/12/17 12:01:30;;;;;;;;;;;;;;;;;;5019323;28;59303;-70
2023/12/17 12:03:56;;;;;;;;;;;;;;;;;;5019893;28;60527;-73
2023/12/17 12:06:21;;;;;;;;;;;;;;;;;;5019125;28;59280;-73
2023/12/17 12:08:48;;;;;;;;;;;;;;;;;;5022300;28;59335;-72
2023/12/17 12:11:13;;;;;;;;;;;;;;;;;;5018704;28;60402;-70
2023/12/17 12:13:38;;;;;;;;;;;;;;;;;;5019773;28;59478;-70
2023/12/17 12:16:03;;;;;;;;;;;;;;;;;;5020784;28;61018;-70
2023/12/17 12:18:28;;;;;;;;;;;;;;;;;;5020435;28;59595;-70
2023/12/17 12:20:53;;;;;;;;;;;;;;;;;;5021449;28;59137;-73
2023/12/17 12:23:18;;;;;;;;;;;;;;;;;;5019798;28;59293;-74
2023/12/17 12:25:43;;;;;;;;;;;;;;;;;;5019712;28;59470;-75
2023/12/17 12:28:09;;;;;;;;;;;;;;;;;;5021334;28;59303;-73
2023/12/17 12:30:35;;;;;;;;;;;;;;;;;;5018756;28;59468;-74
2023/12/17 12:33:00;;;;;;;;;;;;;;;;;;5016378;28;59306;-74
2023/12/17 12:35:29;;;;;;;;;;;;;;;;;;5016950;28;60267;-73
2023/12/17 12:37:54;;;;;;;;;;;;;;;;;;5022117;28;59247;-75
2023/12/17 12:40:19;;;;;;;;;;;;;;;;;;5024655;28;59264;-77
2023/12/17 12:42:44;;;;;;;;;;;;;;;;;;5022832;28;60284;-74
2023/12/17 12:45:10;;;;;;;;;;;;;;;;;;5024609;28;59198;-74
2023/12/17 12:47:35;;;;;;;;;;;;;;;;;;5023911;28;59349;-73
2023/12/17 12:50:00;;;;;;;;;;;;;;;;;;5023104;28;61068;-74
2023/12/17 12:52:25;;;;;;;;;;;;;;;;;;5023113;28;59174;-73
2023/12/17 12:54:50;;;;;;;;;;;;;;;;;;5022763;28;59370;-74
2023/12/17 12:57:15;;;;;;;;;;;;;;;;;;5022693;28;59466;-74
2023/12/17 12:59:40;;;;;;;;;;;;;;;;;;5024088;28;59483;-74
2023/12/17 13:02:06;;;;;;;;;;;;;;;;;;5023915;28;59611;-73
2023/12/17 13:04:31;;;;;;;;;;;;;;;;;;5022928;28;59418;-74
2023/12/17 13:06:56;;;;;;;;;;;;;;;;;;5017055;28;59263;-73
2023/12/17 13:09:21;;;;;;;;;;;;;;;;;;5005139;28;60449;-70
2023/12/17 13:11:48;;;;;;;;;;;;;;;;;;5003428;28;59376;-73
2023/12/17 13:14:13;;;;;;;;;;;;;;;;;;5019774;28;59342;-72
2023/12/17 13:16:38;;;;;;;;;;;;;;;;;;5022940;28;59181;-73
2023/12/17 13:19:03;;;;;;;;;;;;;;;;;;5024688;28;59210;-72
2023/12/17 13:21:28;;;;;;;;;;;;;;;;;;5023559;28;59217;-70
2023/12/17 13:23:53;;;;;;;;;;;;;;;;;;5025287;28;59268;-71
2023/12/17 13:26:18;;;;;;;;;;;;;;;;;;5022825;28;59244;-72
2023/12/17 13:28:43;;;;;;;;;;;;;;;;;;5024848;28;60327;-72
2023/12/17 13:31:08;;;;;;;;;;;;;;;;;;5023124;28;59246;-73
2023/12/17 13:33:33;;;;;;;;;;;;;;;;;;5023731;28;59432;-73
2023/12/17 13:35:58;;;;;;;;;;;;;;;;;;5025102;28;60648;-81
2023/12/17 13:38:23;;;;;;;;;;;;;;;;;;5024396;28;59381;-76
2023/12/17 13:40:49;;;;;;;;;;;;;;;;;;5021477;28;60544;-83
2023/12/17 13:43:14;;;;;;;;;;;;;;;;;;5022201;28;59290;-79
2023/12/17 13:45:39;;;;;;;;;;;;;;;;;;5023781;28;59394;-71
2023/12/17 13:48:04;;;;;;;;;;;;;;;;;;5024290;28;59271;-73
2023/12/17 13:50:29;;;;;;;;;;;;;;;;;;5020037;28;59227;-76
2023/12/17 13:52:56;;;;;;;;;;;;;;;;;;5021634;28;59172;-75
2023/12/17 13:55:22;;;;;;;;;;;;;;;;;;5023828;28;60644;-73
2023/12/17 13:57:47;;;;;;;;;;;;;;;;;;5024251;28;59309;-72
2023/12/17 14:00:14;;;;;;;;;;;;;;;;;;5025398;28;60635;-73
2023/12/17 14:02:39;;;;;;;;;;;;;;;;;;5023025;28;60051;-74
2023/12/17 14:05:04;;;;;;;;;;;;;;;;;;5025666;28;59101;-73
2023/12/17 14:07:29;;;;;;;;;;;;;;;;;;5023545;28;59352;-77
2023/12/17 14:09:55;;;;;;;;;;;;;;;;;;5022566;28;59291;-74
2023/12/17 14:12:20;;;;;;;;;;;;;;;;;;5023042;28;59543;-74
2023/12/17 14:14:46;;;;;;;;;;;;;;;;;;5024596;28;59389;-75
2023/12/17 14:17:11;;;;;;;;;;;;;;;;;;5023259;28;59339;-75
2023/12/17 14:19:38;;;;;;;;;;;;;;;;;;5026330;28;59426;-76
2023/12/17 14:22:04;;;;;;;;;;;;;;;;;;5024336;28;59323;-76
2023/12/17 14:24:29;;;;;;;;;;;;;;;;;;5024090;28;59331;-75
2023/12/17 14:26:54;;;;;;;;;;;;;;;;;;5026336;28;59517;-76
2023/12/17 14:29:19;;;;;;;;;;;;;;;;;;5025049;28;59365;-75
2023/12/17 14:31:44;;;;;;;;;;;;;;;;;;5022522;28;59310;-76
2023/12/17 14:34:10;;;;;;;;;;;;;;;;;;5022456;28;61155;-74
2023/12/17 14:36:38;;;;;;;;;;;;;;;;;;5021334;28;59521;-71
2023/12/17 14:39:03;;;;;;;;;;;;;;;;;;5023743;28;59163;-72
2023/12/17 14:41:28;;;;;;;;;;;;;;;;;;5021856;28;59252;-71
2023/12/17 14:43:53;;;;;;;;;;;;;;;;;;5022657;28;59509;-71
2023/12/17 14:46:18;;;;;;;;;;;;;;;;;;5022976;28;60259;-75
2023/12/17 14:48:43;;;;;;;;;;;;;;;;;;5022524;28;59329;-81
2023/12/17 14:51:10;;;;;;;;;;;;;;;;;;5025545;28;59278;-73
2023/12/17 14:53:35;;;;;;;;;;;;;;;;;;5022384;28;60233;-74
2023/12/17 14:56:00;;;;;;;;;;;;;;;;;;5022460;28;59163;-73
2023/12/17 14:58:26;;;;;;;;;;;;;;;;;;5023399;28;58834;-73
2023/12/17 15:00:51;;;;;;;;;;;;;;;;;;5021204;28;59480;-75
2023/12/17 15:03:16;;;;;;;;;;;;;;;;;;5021104;28;59537;-74
2023/12/17 15:05:41;;;;;;;;;;;;;;;;;;5020946;28;59909;-75
2023/12/17 15:08:06;;;;;;;;;;;;;;;;;;5023003;28;59106;-74
2023/12/17 15:10:31;;;;;;;;;;;;;;;;;;5021684;28;59185;-74
2023/12/17 15:12:56;;;;;;;;;;;;;;;;;;5020580;28;60213;-73
2023/12/17 15:15:21;;;;;;;;;;;;;;;;;;5021229;28;58945;-76
2023/12/17 15:17:46;;;;;;;;;;;;;;;;;;5023985;28;59501;-73
2023/12/17 15:20:11;;;;;;;;;;;;;;;;;;5021943;28;60595;-74
2023/12/17 15:22:37;;;;;;;;;;;;;;;;;;5022871;28;59184;-74
2023/12/17 15:25:02;;;;;;;;;;;;;;;;;;5020855;28;60127;-75
2023/12/17 15:27:27;;;;;;;;;;;;;;;;;;5022832;28;59294;-73
2023/12/17 15:29:52;;;;;;;;;;;;;;;;;;5024644;28;59341;-75
2023/12/17 15:32:17;;;;;;;;;;;;;;;;;;5020387;28;60310;-72
2023/12/17 15:34:42;;;;;;;;;;;;;;;;;;5022221;28;79112;-73
2023/12/17 15:37:08;;;;;;;;;;;;;;;;;;5023900;28;59351;-70
2023/12/17 15:39:33;;;;;;;;;;;;;;;;;;5021431;28;61238;-74
2023/12/17 15:41:59;;;;;;;;;;;;;;;;;;5023938;28;59244;-72
2023/12/17 15:44:24;;;;;;;;;;;;;;;;;;5024439;28;59174;-74
2023/12/17 15:46:49;;;;;;;;;;;;;;;;;;5022669;28;59917;-72
2023/12/17 15:49:15;;;;;;;;;;;;;;;;;;5022667;28;59482;-71
2023/12/17 15:51:40;;;;;;;;;;;;;;;;;;5022708;28;60436;-74
2023/12/17 15:54:05;;;;;;;;;;;;;;;;;;5018065;28;59297;-72
2023/12/17 15:56:30;;;;;;;;;;;;;;;;;;5019650;28;59372;-73
2023/12/17 15:58:55;;;;;;;;;;;;;;;;;;5019265;28;61158;-73
2023/12/17 16:01:20;;;;;;;;;;;;;;;;;;5018221;28;79172;-73
2023/12/17 16:03:46;;;;;;;;;;;;;;;;;;5018706;28;59220;-75
2023/12/17 16:06:11;;;;;;;;;;;;;;;;;;5020728;28;60404;-75
2023/12/17 16:08:36;;;;;;;;;;;;;;;;;;5022420;28;59317;-73
2023/12/17 16:11:01;;;;;;;;;;;;;;;;;;5022355;28;59173;-74
2023/12/17 16:13:26;;;;;;;;;;;;;;;;;;5024191;28;58612;-76
2023/12/17 16:15:51;;;;;;;;;;;;;;;;;;5025180;28;59160;-76
2023/12/17 16:18:16;;;;;;;;;;;;;;;;;;5026045;28;60242;-75
2023/12/17 16:20:43;;;;;;;;;;;;;;;;;;5025455;28;59604;-75
2023/12/17 16:23:08;;;;;;;;;;;;;;;;;;5025624;28;59212;-73
2023/12/17 16:25:33;;;;;;;;;;;;;;;;;;5025898;28;60218;-74
2023/12/17 16:27:58;;;;;;;;;;;;;;;;;;5025869;28;59531;-74
2023/12/17 16:30:23;;;;;;;;;;;;;;;;;;5024033;28;60091;-73